createdAt,value
2023-01-06T00:01:17.394Z,38.42
2023-01-06T00:03:48.108Z,38.65
2023-01-06T00:06:15.565Z,35.10
2023-01-06T00:08:42.958Z,33.78
2023-01-06T00:11:12.989Z,33.05
2023-01-06T00:13:41.332Z,33.15
2023-01-06T00:16:14.082Z,33.50
2023-01-06T00:18:42.260Z,28.00
2023-01-06T00:21:11.078Z,32.72
2023-01-06T00:23:39.067Z,31.40
2023-01-06T00:26:08.519Z,29.58
2023-01-06T00:28:36.286Z,28.58
2023-01-06T00:31:14.861Z,27.25
2023-01-06T00:33:42.932Z,27.60
2023-01-06T00:36:12.299Z,29.30
2023-01-06T00:38:40.255Z,28.90
2023-01-06T00:41:31.032Z,29.80
2023-01-06T00:43:59.435Z,32.42
2023-01-06T00:46:29.622Z,27.55
2023-01-06T00:49:06.899Z,33.20
2023-01-06T00:51:37.406Z,27.88
2023-01-06T00:54:06.933Z,27.30
2023-01-06T00:56:42.777Z,28.73
2023-01-06T00:59:12.705Z,26.75
2023-01-06T01:01:40.533Z,28.42
2023-01-06T01:04:08.805Z,29.05
2023-01-06T01:06:37.467Z,27.17
2023-01-06T01:09:06.785Z,27.80
2023-01-06T01:11:53.678Z,28.50
2023-01-06T01:14:21.257Z,29.83
2023-01-06T01:16:48.932Z,26.63
2023-01-06T01:19:17.289Z,28.02
2023-01-06T01:21:46.600Z,37.75
2023-01-06T01:24:15.121Z,30.13
2023-01-06T01:26:42.838Z,28.38
2023-01-06T01:29:15.234Z,29.00
2023-01-06T01:31:43.308Z,31.95
2023-01-06T01:34:12.122Z,30.15
2023-01-06T01:36:44.159Z,33.60
2023-01-06T01:41:39.804Z,30.40
2023-01-06T01:44:45.141Z,31.80
2023-01-06T01:47:17.054Z,32.30
2023-01-06T01:49:47.777Z,30.60
2023-01-06T01:52:16.230Z,33.20
2023-01-06T01:54:44.926Z,32.50
2023-01-06T01:57:19.395Z,35.08
2023-01-06T01:59:47.558Z,33.17
2023-01-06T02:02:17.162Z,36.65
2023-01-06T02:04:49.049Z,37.83
2023-01-06T02:07:17.228Z,30.17
2023-01-06T02:10:02.945Z,32.38
2023-01-06T02:12:32.601Z,34.22
2023-01-06T02:14:59.937Z,34.78
2023-01-06T02:17:36.483Z,37.35
2023-01-06T02:20:14.982Z,33.58
2023-01-06T02:23:19.987Z,35.42
2023-01-06T02:25:59.814Z,38.05
2023-01-06T02:28:39.323Z,30.88
2023-01-06T02:31:19.154Z,34.53
2023-01-06T02:33:55.087Z,34.13
2023-01-06T02:36:44.980Z,33.13
2023-01-06T02:39:46.861Z,30.52
2023-01-06T02:42:26.168Z,33.78
2023-01-06T02:45:29.175Z,34.60
2023-01-06T02:48:08.828Z,39.30
2023-01-06T02:50:56.970Z,37.38
2023-01-06T02:53:34.048Z,37.10
2023-01-06T02:56:03.204Z,37.78
2023-01-06T02:58:39.680Z,32.30
2023-01-06T03:01:17.274Z,38.42
2023-01-06T03:03:48.444Z,44.85
2023-01-06T03:08:48.753Z,41.58
2023-01-06T03:11:18.391Z,35.67
2023-01-06T03:14:08.637Z,35.38
2023-01-06T03:16:36.060Z,34.35
2023-01-06T03:19:03.774Z,34.75
2023-01-06T03:21:36.732Z,34.03
2023-01-06T03:24:06.999Z,35.80
2023-01-06T03:26:36.420Z,31.92
2023-01-06T03:29:08.937Z,42.28
2023-01-06T03:32:01.486Z,32.67
2023-01-06T03:34:43.488Z,34.60
2023-01-06T03:37:27.142Z,35.90
2023-01-06T03:40:03.699Z,35.97
2023-01-06T03:42:58.572Z,36.45
2023-01-06T03:45:35.422Z,33.40
2023-01-06T03:48:20.278Z,35.20
2023-01-06T03:50:47.630Z,36.10
2023-01-06T03:53:26.049Z,38.63
2023-01-06T03:56:02.468Z,34.53
2023-01-06T03:58:31.178Z,33.83
2023-01-06T04:00:59.001Z,32.60
2023-01-06T04:03:26.539Z,33.70
2023-01-06T04:05:54.662Z,38.78
2023-01-06T04:08:22.727Z,35.10
2023-01-06T04:10:51.134Z,33.45
2023-01-06T04:13:18.528Z,33.83
2023-01-06T04:15:46.056Z,33.88
2023-01-06T04:18:13.630Z,37.58
2023-01-06T04:20:42.954Z,36.25
2023-01-06T04:23:15.565Z,35.10
2023-01-06T04:25:45.088Z,34.40
2023-01-06T04:28:39.448Z,34.53
2023-01-06T04:31:09.215Z,35.35
2023-01-06T04:33:37.109Z,38.03
2023-01-06T04:36:06.884Z,38.72
2023-01-06T04:38:35.268Z,39.33
2023-01-06T04:41:02.663Z,36.08
2023-01-06T04:43:29.991Z,33.83
2023-01-06T04:46:00.730Z,39.40
2023-01-06T04:48:28.282Z,37.13
2023-01-06T04:51:10.082Z,36.33
2023-01-06T04:53:40.100Z,38.65
2023-01-06T04:56:10.184Z,37.40
2023-01-06T04:58:38.214Z,31.00
2023-01-06T05:01:09.492Z,33.35
2023-01-06T05:03:37.584Z,34.72
2023-01-06T05:06:11.648Z,35.65
2023-01-06T05:08:40.839Z,34.67
2023-01-06T05:11:17.585Z,36.15
2023-01-06T05:13:45.686Z,34.80
2023-01-06T05:16:17.972Z,31.77
2023-01-06T05:18:45.700Z,32.83
2023-01-06T05:21:13.123Z,32.13
2023-01-06T05:23:40.822Z,31.60
2023-01-06T05:26:09.646Z,29.45
2023-01-06T05:28:36.973Z,32.20
2023-01-06T05:31:05.426Z,36.50
2023-01-06T05:33:33.694Z,31.98
2023-01-06T05:36:07.299Z,38.13
2023-01-06T05:38:34.852Z,35.40
2023-01-06T05:41:02.437Z,34.55
2023-01-06T05:43:30.170Z,32.45
2023-01-06T05:45:57.591Z,34.20
2023-01-06T05:48:27.466Z,33.53
2023-01-06T05:51:03.732Z,33.75
2023-01-06T05:53:33.039Z,37.40
2023-01-06T05:56:01.801Z,34.20
2023-01-06T05:58:29.552Z,36.15
2023-01-06T06:00:56.871Z,35.13
2023-01-06T06:03:24.330Z,34.47
2023-01-06T06:05:51.733Z,36.47
2023-01-06T06:08:19.319Z,33.72
2023-01-06T06:10:46.668Z,33.63
2023-01-06T06:13:14.015Z,36.10
2023-01-06T06:15:41.424Z,34.47
2023-01-06T06:18:08.852Z,31.55
2023-01-06T06:20:36.231Z,30.17
2023-01-06T06:23:03.857Z,29.33
2023-01-06T06:25:31.506Z,31.65
2023-01-06T06:27:59.752Z,31.63
2023-01-06T06:30:27.213Z,28.75
2023-01-06T06:32:54.512Z,26.13
2023-01-06T06:35:21.898Z,27.05
2023-01-06T06:37:49.324Z,27.17
2023-01-06T06:40:16.761Z,22.88
2023-01-06T06:42:44.104Z,23.98
2023-01-06T06:45:11.603Z,23.90
2023-01-06T06:47:39.016Z,27.52
2023-01-06T06:50:06.622Z,25.88
2023-01-06T06:52:34.033Z,30.42
2023-01-06T06:55:01.391Z,33.55
2023-01-06T06:57:28.834Z,33.25
2023-01-06T06:59:56.236Z,32.45
2023-01-06T07:02:23.633Z,34.20
2023-01-06T07:04:51.093Z,33.97
2023-01-06T07:07:18.486Z,34.13
2023-01-06T07:09:45.817Z,33.35
2023-01-06T07:12:13.079Z,34.00
2023-01-06T07:14:40.390Z,34.88
2023-01-06T07:17:07.803Z,34.30
2023-01-06T07:19:35.195Z,36.75
2023-01-06T07:22:02.593Z,35.53
2023-01-06T07:24:29.983Z,34.92
2023-01-06T07:26:57.365Z,39.25
2023-01-06T07:29:24.687Z,38.05
2023-01-06T07:31:52.080Z,37.13
2023-01-06T07:34:19.377Z,39.25
2023-01-06T07:36:46.759Z,37.47
2023-01-06T07:39:14.099Z,38.70
2023-01-06T07:41:41.493Z,34.47
2023-01-06T07:44:12.258Z,33.13
2023-01-06T07:46:39.689Z,36.63
2023-01-06T07:49:07.055Z,35.20
2023-01-06T07:51:34.475Z,33.97
2023-01-06T07:54:02.054Z,35.25
2023-01-06T07:56:29.412Z,34.95
2023-01-06T07:58:56.830Z,37.47
2023-01-06T08:01:24.335Z,33.00
2023-01-06T08:03:51.873Z,34.42
2023-01-06T08:06:19.269Z,38.30
2023-01-06T08:08:46.609Z,38.05
2023-01-06T08:11:14.076Z,34.30
2023-01-06T08:13:41.517Z,35.47
2023-01-06T08:16:10.210Z,36.25
2023-01-06T08:18:38.255Z,38.72
2023-01-06T08:21:10.527Z,37.53
2023-01-06T08:23:38.147Z,39.58
2023-01-06T08:26:09.181Z,39.03
2023-01-06T08:28:36.690Z,35.67
2023-01-06T08:31:04.349Z,37.60
2023-01-06T08:33:31.691Z,36.42
2023-01-06T08:36:00.270Z,35.95
2023-01-06T08:38:28.726Z,35.63
2023-01-06T08:40:57.550Z,35.17
2023-01-06T08:43:24.903Z,33.70
2023-01-06T08:45:52.923Z,35.00
2023-01-06T08:48:20.269Z,37.83
2023-01-06T08:50:47.616Z,34.30
2023-01-06T08:53:14.974Z,35.90
2023-01-06T08:55:42.374Z,36.38
2023-01-06T08:58:10.295Z,38.70
2023-01-06T09:00:40.888Z,35.72
2023-01-06T09:03:08.648Z,37.47
2023-01-06T09:05:36.023Z,39.55
2023-01-06T09:08:03.795Z,39.75
2023-01-06T09:10:31.301Z,37.33
2023-01-06T09:12:58.944Z,34.90
2023-01-06T09:15:26.292Z,37.05
2023-01-06T09:17:53.641Z,35.35
2023-01-06T09:20:21.050Z,31.60
2023-01-06T09:22:48.397Z,27.67
2023-01-06T09:25:15.982Z,29.40
2023-01-06T09:27:43.387Z,29.63
2023-01-06T09:30:11.331Z,27.98
2023-01-06T09:32:38.708Z,30.35
2023-01-06T09:35:06.728Z,26.95
2023-01-06T09:37:34.029Z,28.50
2023-01-06T09:40:01.379Z,31.70
2023-01-06T09:43:20.003Z,33.17
2023-01-06T09:45:53.662Z,37.13
2023-01-06T09:48:39.011Z,32.83
2023-01-06T09:51:08.018Z,29.90
2023-01-06T09:53:40.989Z,31.17
2023-01-06T09:56:15.094Z,31.60
2023-01-06T09:58:53.111Z,33.63
2023-01-06T10:01:28.108Z,32.83
2023-01-06T10:03:57.496Z,39.45
2023-01-06T10:06:32.763Z,40.05
2023-01-06T10:09:21.906Z,48.25
2023-01-06T10:11:57.206Z,35.30
2023-01-06T10:14:39.181Z,32.80
2023-01-06T10:17:18.780Z,32.58
2023-01-06T10:19:55.320Z,35.70
2023-01-06T10:23:07.620Z,34.58
2023-01-06T10:25:41.511Z,37.53
2023-01-06T10:28:14.641Z,38.15
2023-01-06T10:30:47.389Z,37.25
2023-01-06T10:36:00.405Z,40.15
2023-01-06T10:38:37.346Z,38.38
2023-01-06T10:41:33.904Z,37.47
2023-01-06T10:44:01.534Z,38.28
2023-01-06T10:46:35.969Z,38.72
2023-01-06T10:49:06.146Z,36.50
2023-01-06T10:51:44.531Z,35.40
2023-01-06T10:54:22.611Z,43.17
2023-01-06T10:56:56.750Z,43.03
2023-01-06T10:59:24.155Z,37.28
2023-01-06T11:01:57.277Z,36.20
2023-01-06T11:04:28.012Z,40.58
2023-01-06T11:06:59.747Z,37.00
2023-01-06T11:09:32.574Z,36.15
2023-01-06T11:12:03.059Z,39.45
2023-01-06T11:14:33.328Z,39.42
2023-01-06T11:17:03.822Z,43.00
2023-01-06T11:19:40.844Z,41.60
2023-01-06T11:22:40.595Z,40.80
2023-01-06T11:25:20.147Z,39.97
2023-01-06T11:28:09.135Z,42.15
2023-01-06T11:30:43.580Z,40.55
2023-01-06T11:33:18.027Z,41.53
2023-01-06T11:35:46.493Z,40.83
2023-01-06T11:38:16.639Z,42.70
2023-01-06T11:43:33.677Z,38.92
2023-01-06T11:46:05.475Z,42.70
2023-01-06T11:48:47.639Z,36.92
2023-01-06T11:51:48.134Z,38.55
2023-01-06T11:54:37.197Z,38.17
2023-01-06T11:57:23.558Z,39.70
2023-01-06T12:00:22.950Z,43.08
2023-01-06T12:03:18.300Z,43.03
2023-01-06T12:06:13.092Z,42.88
2023-01-06T12:09:04.944Z,39.03
2023-01-06T12:11:46.107Z,40.78
2023-01-06T12:14:28.147Z,40.73
2023-01-06T12:17:22.088Z,42.55
2023-01-06T12:20:01.429Z,43.63
2023-01-06T12:22:44.949Z,44.05
2023-01-06T12:25:18.681Z,43.42
2023-01-06T12:27:50.869Z,41.80
2023-01-06T12:30:21.698Z,42.53
2023-01-06T12:32:52.807Z,39.28
2023-01-06T12:35:26.367Z,40.67
2023-01-06T12:37:58.372Z,44.03
2023-01-06T12:43:12.810Z,41.90
2023-01-06T12:45:56.528Z,42.40
2023-01-06T12:48:35.979Z,43.30
2023-01-06T12:51:23.807Z,48.90
2023-01-06T12:54:02.156Z,41.83
2023-01-06T12:56:35.353Z,42.97
2023-01-06T12:59:30.297Z,46.22
2023-01-06T13:02:24.009Z,42.00
2023-01-06T13:05:25.250Z,44.33
2023-01-06T13:08:07.524Z,40.58
2023-01-06T13:10:41.914Z,43.15
2023-01-06T13:13:30.695Z,40.10
2023-01-06T13:16:04.808Z,44.08
2023-01-06T13:19:12.430Z,42.28
2023-01-06T13:21:40.960Z,44.35
2023-01-06T13:24:14.334Z,44.88
2023-01-06T13:27:26.199Z,42.17
2023-01-06T13:29:53.732Z,44.30
2023-01-06T13:32:39.344Z,42.90
2023-01-06T13:35:15.692Z,44.78
2023-01-06T13:38:14.192Z,41.85
2023-01-06T13:40:44.593Z,42.00
2023-01-06T13:43:23.955Z,45.38
2023-01-06T13:45:58.407Z,46.15
2023-01-06T13:48:32.414Z,41.88
2023-01-06T13:51:04.770Z,44.85
2023-01-06T13:53:40.837Z,45.08
2023-01-06T13:56:14.114Z,43.17
2023-01-06T13:58:46.422Z,42.95
2023-01-06T14:01:34.482Z,42.15
2023-01-06T14:04:26.686Z,43.53
2023-01-06T14:06:54.830Z,43.40
2023-01-06T14:09:22.499Z,43.53
2023-01-06T14:11:50.111Z,44.92
2023-01-06T14:14:25.137Z,45.13
2023-01-06T14:16:54.761Z,44.55
2023-01-06T14:19:32.350Z,45.58
2023-01-06T14:22:18.683Z,44.90
2023-01-06T14:24:52.921Z,45.13
2023-01-06T14:27:48.196Z,44.28
2023-01-06T14:30:36.901Z,43.45
2023-01-06T14:33:07.298Z,41.35
2023-01-06T14:35:42.158Z,44.20
2023-01-06T14:38:34.404Z,44.00
2023-01-06T14:43:37.860Z,42.22
2023-01-06T14:46:21.484Z,44.42
2023-01-06T14:49:23.743Z,44.28
2023-01-06T14:51:57.047Z,44.67
2023-01-06T14:54:36.928Z,47.50
2023-01-06T14:57:05.949Z,44.83
2023-01-06T14:59:33.848Z,46.15
2023-01-06T15:02:12.035Z,47.55
2023-01-06T15:04:39.891Z,48.72
2023-01-06T15:07:20.899Z,45.97
2023-01-06T15:09:50.969Z,43.90
2023-01-06T15:12:30.727Z,49.67
2023-01-06T15:15:22.704Z,50.03
2023-01-06T15:17:51.815Z,46.33
2023-01-06T15:20:19.457Z,46.58
2023-01-06T15:22:49.681Z,44.55
2023-01-06T15:25:21.488Z,50.53
2023-01-06T15:27:49.741Z,47.05
2023-01-06T15:30:19.416Z,47.50
2023-01-06T15:32:48.334Z,46.03
2023-01-06T15:35:20.268Z,48.47
2023-01-06T15:40:20.432Z,47.50
2023-01-06T15:42:47.865Z,46.28
2023-01-06T15:45:33.359Z,47.47
2023-01-06T15:48:09.100Z,48.05
2023-01-06T15:50:37.087Z,51.30
2023-01-06T15:53:14.891Z,51.10
2023-01-06T15:55:44.248Z,49.30
2023-01-06T15:58:22.596Z,51.03
2023-01-06T16:00:59.010Z,47.63
2023-01-06T16:03:28.919Z,51.80
2023-01-06T16:06:11.254Z,53.47
2023-01-06T16:08:40.980Z,54.00
2023-01-06T16:11:37.200Z,53.42
2023-01-06T16:14:07.137Z,49.63
2023-01-06T16:16:42.885Z,50.17
2023-01-06T16:19:18.142Z,48.53
2023-01-06T16:21:45.783Z,52.00
2023-01-06T16:24:27.472Z,51.88
2023-01-06T16:27:02.341Z,53.33
2023-01-06T16:29:37.170Z,50.67
2023-01-06T16:32:38.498Z,49.63
2023-01-06T16:35:14.672Z,56.42
2023-01-06T16:37:42.723Z,52.85
2023-01-06T16:40:13.052Z,50.45
2023-01-06T16:42:42.961Z,53.78
2023-01-06T16:45:13.391Z,51.10
2023-01-06T16:47:41.522Z,60.58
2023-01-06T16:50:39.748Z,68.65
2023-01-06T16:53:09.834Z,58.92
2023-01-06T16:55:41.288Z,59.55
2023-01-06T16:58:14.280Z,56.03
2023-01-06T17:00:44.064Z,54.35
2023-01-06T17:03:15.284Z,55.65
2023-01-06T17:05:43.270Z,57.75
2023-01-06T17:08:15.903Z,57.10
2023-01-06T17:10:44.316Z,55.90
2023-01-06T17:13:34.665Z,56.58
2023-01-06T17:16:11.135Z,54.20
2023-01-06T17:18:49.944Z,57.75
2023-01-06T17:21:21.556Z,55.38
2023-01-06T17:23:50.760Z,48.63
2023-01-06T17:26:19.911Z,51.97
2023-01-06T17:28:49.165Z,55.58
2023-01-06T17:31:29.437Z,57.17
2023-01-06T17:33:58.751Z,54.83
2023-01-06T17:36:37.269Z,59.92
2023-01-06T17:39:32.634Z,53.08
2023-01-06T17:42:21.948Z,54.22
2023-01-06T17:44:56.662Z,55.33
2023-01-06T17:47:57.293Z,56.08
2023-01-06T17:50:33.953Z,55.58
2023-01-06T17:53:36.640Z,57.50
2023-01-06T17:56:07.213Z,60.15
2023-01-06T17:58:40.992Z,58.38
2023-01-06T18:01:12.076Z,59.38
2023-01-06T18:03:43.732Z,57.47
2023-01-06T18:06:26.296Z,58.60
2023-01-06T18:09:00.394Z,61.17
2023-01-06T18:11:39.635Z,55.13
2023-01-06T18:14:18.222Z,59.53
2023-01-06T18:16:47.560Z,65.43
2023-01-06T18:19:47.392Z,64.63
2023-01-06T18:22:21.328Z,57.15
2023-01-06T18:25:00.155Z,57.75
2023-01-06T18:27:33.486Z,58.92
2023-01-06T18:30:16.542Z,67.10
2023-01-06T18:32:45.628Z,65.10
2023-01-06T18:35:25.024Z,72.72
2023-01-06T18:37:52.391Z,69.43
2023-01-06T18:40:24.741Z,68.63
2023-01-06T18:42:53.933Z,69.55
2023-01-06T18:45:22.945Z,65.30
2023-01-06T18:47:55.135Z,68.40
2023-01-06T18:50:22.482Z,66.72
2023-01-06T18:52:51.846Z,68.68
2023-01-06T18:55:26.939Z,68.63
2023-01-06T18:57:57.697Z,69.47
2023-01-06T19:00:45.748Z,69.95
2023-01-06T19:03:49.995Z,72.90
2023-01-06T19:06:17.262Z,69.82
2023-01-06T19:08:51.592Z,68.43
2023-01-06T19:11:23.809Z,70.82
2023-01-06T19:13:55.134Z,68.13
2023-01-06T19:16:25.429Z,68.75
2023-01-06T19:18:54.229Z,70.32
2023-01-06T19:21:22.859Z,72.15
2023-01-06T19:24:26.709Z,65.70
2023-01-06T19:26:56.442Z,67.85
2023-01-06T19:29:28.546Z,68.97
2023-01-06T19:31:58.920Z,69.72
2023-01-06T19:34:26.915Z,67.47
2023-01-06T19:36:58.142Z,63.95
2023-01-06T19:39:34.361Z,67.55
2023-01-06T19:42:27.099Z,64.88
2023-01-06T19:44:58.442Z,65.05
2023-01-06T19:47:31.618Z,65.22
2023-01-06T19:50:16.010Z,68.20
2023-01-06T19:52:43.427Z,65.95
2023-01-06T19:55:30.157Z,66.65
2023-01-06T19:58:17.929Z,66.05
2023-01-06T20:00:49.940Z,64.90
2023-01-06T20:03:32.542Z,69.30
2023-01-06T20:06:00.059Z,66.18
2023-01-06T20:08:28.004Z,71.65
2023-01-06T20:10:55.371Z,66.50
2023-01-06T20:13:22.818Z,65.32
2023-01-06T20:15:50.181Z,67.85
2023-01-06T20:18:17.537Z,67.88
2023-01-06T20:20:44.931Z,66.78
2023-01-06T20:23:12.346Z,68.32
2023-01-06T20:25:39.839Z,63.92
2023-01-06T20:28:07.676Z,64.43
2023-01-06T20:30:35.055Z,67.80
2023-01-06T20:33:02.646Z,63.95
2023-01-06T20:35:30.039Z,64.68
2023-01-06T20:37:57.444Z,63.97
2023-01-06T20:40:24.902Z,66.07
2023-01-06T20:42:52.209Z,67.57
2023-01-06T20:45:20.351Z,65.53
2023-01-06T20:47:47.691Z,70.80
2023-01-06T20:50:15.086Z,69.32
2023-01-06T20:52:45.290Z,68.63
2023-01-06T20:55:13.049Z,72.18
2023-01-06T20:57:40.481Z,71.40
2023-01-06T21:00:10.948Z,69.65
2023-01-06T21:02:39.636Z,70.40
2023-01-06T21:05:08.430Z,66.57
2023-01-06T21:07:35.757Z,66.60
2023-01-06T21:10:04.136Z,70.10
2023-01-06T21:12:31.978Z,74.80
2023-01-06T21:14:59.379Z,69.72
2023-01-06T21:17:26.733Z,74.32
2023-01-06T21:19:55.385Z,68.85
2023-01-06T21:22:22.926Z,71.35
2023-01-06T21:24:50.293Z,69.97
2023-01-06T21:27:17.753Z,68.45
2023-01-06T21:29:45.317Z,67.15
2023-01-06T21:32:12.892Z,68.65
2023-01-06T21:34:40.463Z,69.97
2023-01-06T21:37:07.834Z,70.20
2023-01-06T21:39:35.525Z,64.40
2023-01-06T21:42:21.556Z,65.22
2023-01-06T21:44:49.135Z,65.28
2023-01-06T21:47:16.704Z,69.45
2023-01-06T21:49:46.875Z,71.82
2023-01-06T21:52:15.878Z,77.10
2023-01-06T21:54:44.717Z,72.18
2023-01-06T21:57:12.607Z,77.22
2023-01-06T21:59:40.107Z,73.03
2023-01-06T22:02:08.596Z,78.22
2023-01-06T22:04:36.044Z,76.63
2023-01-06T22:07:09.064Z,75.50
2023-01-06T22:09:39.094Z,77.38
2023-01-06T22:12:08.680Z,76.72
2023-01-06T22:14:36.319Z,83.40
2023-01-06T22:17:03.987Z,85.15
2023-01-06T22:19:31.942Z,85.70
2023-01-06T22:22:01.496Z,82.85
2023-01-06T22:24:31.033Z,81.75
2023-01-06T22:26:58.363Z,76.30
2023-01-06T22:29:25.769Z,78.07
2023-01-06T22:31:53.228Z,76.25
2023-01-06T22:34:20.625Z,78.35
2023-01-06T22:36:47.913Z,78.38
2023-01-06T22:39:15.343Z,81.55
2023-01-06T22:41:42.639Z,80.80
2023-01-06T22:44:10.075Z,75.72
2023-01-06T22:46:37.418Z,74.28
2023-01-06T22:49:05.223Z,79.13
2023-01-06T22:51:32.812Z,76.25
2023-01-06T22:54:00.214Z,75.97
2023-01-06T22:56:27.657Z,79.03
2023-01-06T22:58:55.056Z,78.30
2023-01-06T23:01:22.734Z,79.82
2023-01-06T23:03:50.320Z,80.25
2023-01-06T23:06:17.963Z,78.95
2023-01-06T23:08:58.891Z,76.10
2023-01-06T23:11:28.224Z,76.78
2023-01-06T23:13:57.774Z,74.25
2023-01-06T23:16:30.230Z,75.70
2023-01-06T23:18:57.875Z,77.45
2023-01-06T23:21:26.902Z,74.95
2023-01-06T23:23:54.433Z,70.22
2023-01-06T23:26:28.268Z,65.72
2023-01-06T23:28:56.802Z,58.67
2023-01-06T23:31:27.001Z,53.53
2023-01-06T23:33:56.806Z,54.25
2023-01-06T23:36:27.358Z,54.03
2023-01-06T23:38:55.941Z,55.65
2023-01-06T23:41:26.998Z,58.63
2023-01-06T23:43:55.479Z,54.50
2023-01-06T23:46:25.907Z,51.42
2023-01-06T23:48:54.230Z,52.10
2023-01-06T23:51:25.133Z,48.40
2023-01-06T23:53:53.090Z,50.42
2023-01-06T23:56:22.843Z,48.42
2023-01-06T23:58:53.624Z,52.67
